Time;durP1;ratioP1;P1;durP2;ratioP2;P2;SDS_P1;SDS_P2;PMS_P1;PMS_P2;Temp;Humidity;BMP_temperature;BMP_pressure;BME280_temperature;BME280_humidity;BME280_pressure;Samples;Min_cycle;Max_cycle;Signal;HPM_P1;HPM_P2
2022/08/18 00:02:04;;;;;;;0.10;0.00;;;18.90;99.90;;;;;;4894101;29;21009;-85
2022/08/18 00:04:30;;;;;;;0.10;0.10;;;18.90;99.90;;;;;;4896914;29;20497;-85
2022/08/18 00:06:56;;;;;;;0.10;0.10;;;18.90;99.90;;;;;;4895519;29;20449;-85
2022/08/18 00:09:21;;;;;;;0.10;0.00;;;18.80;99.90;;;;;;4896280;29;20460;-86
2022/08/18 00:11:47;;;;;;;0.10;0.10;;;18.80;99.90;;;;;;4897261;29;20188;-84
2022/08/18 00:14:15;;;;;;;0.10;0.00;;;18.80;99.90;;;;;;4895566;29;20239;-84
2022/08/18 00:16:41;;;;;;;0.10;0.10;;;18.80;99.90;;;;;;4892604;29;20268;-85
2022/08/18 00:19:06;;;;;;;0.10;0.00;;;18.80;99.90;;;;;;4894334;29;20560;-85
2022/08/18 00:21:33;;;;;;;0.10;0.10;;;18.80;99.90;;;;;;4895555;29;20216;-84
2022/08/18 00:23:58;;;;;;;0.10;0.00;;;18.80;99.90;;;;;;4896028;29;20284;-85
2022/08/18 00:26:24;;;;;;;0.10;0.10;;;18.70;99.90;;;;;;4894438;29;20532;-83
2022/08/18 00:28:49;;;;;;;0.10;0.10;;;18.70;99.90;;;;;;4895935;29;20575;-85
2022/08/18 00:31:15;;;;;;;0.10;0.10;;;18.70;99.90;;;;;;4894122;29;20196;-85
2022/08/18 00:33:42;;;;;;;0.10;0.10;;;18.60;99.90;;;;;;4892524;29;20203;-85
2022/08/18 00:36:08;;;;;;;0.10;0.10;;;18.60;99.90;;;;;;4895887;29;20256;-85
2022/08/18 00:38:34;;;;;;;0.10;0.10;;;18.50;99.90;;;;;;4897069;29;20456;-86
2022/08/18 00:41:00;;;;;;;0.10;0.00;;;18.50;99.90;;;;;;4915406;29;20527;-85
2022/08/18 00:43:35;;;;;;;0.10;0.10;;;18.40;99.90;;;;;;4914003;29;20199;-85
2022/08/18 00:46:01;;;;;;;0.10;0.00;;;18.40;99.90;;;;;;4903519;29;20456;-85
2022/08/18 00:48:26;;;;;;;0.10;0.10;;;18.50;99.90;;;;;;4895921;29;20437;-85
2022/08/18 00:50:55;;;;;;;0.10;0.10;;;18.40;99.90;;;;;;4896416;29;20805;-85
2022/08/18 00:53:30;;;;;;;0.10;0.10;;;18.30;99.90;;;;;;4910064;29;20567;-85
2022/08/18 00:55:59;;;;;;;0.10;0.00;;;18.30;99.90;;;;;;4906278;29;20453;-85
2022/08/18 00:58:31;;;;;;;0.10;0.10;;;18.30;99.90;;;;;;4910669;29;20456;-85
2022/08/18 01:00:58;;;;;;;0.10;0.00;;;18.30;99.90;;;;;;4895203;29;20959;-85
2022/08/18 01:03:24;;;;;;;0.10;0.10;;;18.30;99.90;;;;;;4893142;29;20499;-85
2022/08/18 01:06:28;;;;;;;0.10;0.10;;;18.30;99.90;;;;;;4893816;29;20494;-85
2022/08/18 01:08:54;;;;;;;0.10;0.10;;;18.20;99.90;;;;;;4908959;29;20279;-85
2022/08/18 01:11:20;;;;;;;0.10;0.10;;;18.20;99.90;;;;;;4895381;29;20449;-85
2022/08/18 01:13:45;;;;;;;0.10;0.00;;;18.10;99.90;;;;;;4891297;29;20557;-85
2022/08/18 01:21:50;;;;;;;0.10;0.00;;;18.10;99.90;;;;;;4895706;29;20536;-85
2022/08/18 01:24:18;;;;;;;0.10;0.10;;;18.20;99.90;;;;;;4894076;29;20462;-85
2022/08/18 01:26:50;;;;;;;0.10;0.10;;;18.20;99.90;;;;;;4893164;29;20476;-85
2022/08/18 01:29:18;;;;;;;0.10;0.10;;;18.20;99.90;;;;;;4908548;29;20839;-85
2022/08/18 01:31:48;;;;;;;0.10;0.10;;;18.20;99.90;;;;;;4893659;29;20458;-86
2022/08/18 01:34:14;;;;;;;0.10;0.10;;;18.10;99.90;;;;;;4894339;29;20804;-86
2022/08/18 01:36:41;;;;;;;0.10;0.10;;;18.10;99.90;;;;;;4895654;29;20914;-86
2022/08/18 01:39:10;;;;;;;0.10;0.10;;;18.10;99.90;;;;;;4895594;29;20440;-85
2022/08/18 01:41:37;;;;;;;0.10;0.10;;;18.00;99.90;;;;;;4895463;29;20596;-86
2022/08/18 01:44:04;;;;;;;0.10;0.10;;;18.00;99.90;;;;;;4902289;29;20448;-86
2022/08/18 01:46:32;;;;;;;0.10;0.00;;;18.00;99.90;;;;;;4908775;29;20464;-85
2022/08/18 01:48:59;;;;;;;0.10;0.00;;;18.00;99.90;;;;;;4895298;29;20430;-86
2022/08/18 01:51:26;;;;;;;0.10;0.10;;;17.90;99.90;;;;;;4895522;29;20476;-85
2022/08/18 01:53:52;;;;;;;0.10;0.00;;;17.90;99.90;;;;;;4895493;29;20461;-86
2022/08/18 01:56:17;;;;;;;0.10;0.10;;;17.90;99.90;;;;;;4894539;29;21261;-86
2022/08/18 01:58:44;;;;;;;0.10;0.10;;;17.90;99.90;;;;;;4894569;29;20200;-86
2022/08/18 02:01:11;;;;;;;0.10;0.10;;;17.90;99.90;;;;;;4909009;29;20221;-86
2022/08/18 02:03:41;;;;;;;0.10;0.10;;;17.80;99.90;;;;;;4890790;29;20453;-86
2022/08/18 02:06:13;;;;;;;0.10;0.10;;;17.90;99.90;;;;;;4895296;29;20428;-85
2022/08/18 02:08:39;;;;;;;0.10;0.10;;;17.80;99.90;;;;;;4895419;29;20973;-84
2022/08/18 02:11:05;;;;;;;0.10;0.10;;;17.80;99.90;;;;;;4894410;29;20887;-86
2022/08/18 02:13:31;;;;;;;0.10;0.10;;;17.90;99.90;;;;;;4891930;29;20536;-84
2022/08/18 02:15:57;;;;;;;0.10;0.10;;;17.80;99.90;;;;;;4892712;29;20463;-85
2022/08/18 02:18:29;;;;;;;0.10;0.10;;;17.90;99.90;;;;;;4889291;29;20192;-85
2022/08/18 02:20:56;;;;;;;0.10;0.10;;;17.80;99.90;;;;;;4895165;29;20220;-86
2022/08/18 02:23:23;;;;;;;0.10;0.10;;;17.90;99.90;;;;;;4894475;29;20457;-85
2022/08/18 02:25:49;;;;;;;0.10;0.10;;;17.90;99.90;;;;;;4893892;29;21140;-86
2022/08/18 02:28:14;;;;;;;0.10;0.10;;;17.90;99.90;;;;;;4894318;29;20937;-86
2022/08/18 02:30:41;;;;;;;0.10;0.10;;;17.90;99.90;;;;;;4893244;29;20460;-85
2022/08/18 02:33:09;;;;;;;0.10;0.10;;;17.90;99.90;;;;;;4892119;29;20625;-86
2022/08/18 02:35:36;;;;;;;0.10;0.10;;;17.90;99.90;;;;;;4891268;29;20445;-84
2022/08/18 02:38:05;;;;;;;0.10;0.10;;;18.00;99.90;;;;;;4894949;29;20429;-86
2022/08/18 02:40:33;;;;;;;0.10;0.10;;;18.00;99.90;;;;;;4908593;29;20449;-86
2022/08/18 02:43:04;;;;;;;0.10;0.10;;;18.00;99.90;;;;;;4894931;29;20532;-86
2022/08/18 02:45:30;;;;;;;0.10;0.10;;;18.00;99.90;;;;;;4905311;29;20449;-86
2022/08/18 02:47:57;;;;;;;0.10;0.10;;;18.00;99.90;;;;;;4894047;29;20460;-86
2022/08/18 02:50:23;;;;;;;0.10;0.10;;;18.00;99.90;;;;;;4893179;29;20189;-86
2022/08/18 02:52:49;;;;;;;0.10;0.10;;;17.80;99.90;;;;;;4891814;29;20456;-86
2022/08/18 02:55:15;;;;;;;0.10;0.10;;;17.70;99.90;;;;;;4891973;29;20449;-85
2022/08/18 02:57:43;;;;;;;0.10;0.10;;;17.60;99.90;;;;;;4897662;29;20199;-85
2022/08/18 03:00:12;;;;;;;0.10;0.10;;;17.60;99.90;;;;;;4897483;29;20453;-85
2022/08/18 03:02:37;;;;;;;0.10;0.10;;;17.50;99.90;;;;;;4897002;29;21030;-85
2022/08/18 03:05:04;;;;;;;0.10;0.10;;;17.50;99.90;;;;;;4896632;29;20524;-86
2022/08/18 03:07:30;;;;;;;0.10;0.10;;;17.50;99.90;;;;;;4896231;29;20193;-86
2022/08/18 03:09:56;;;;;;;0.10;0.10;;;17.50;99.90;;;;;;4895640;29;20625;-86
2022/08/18 03:12:21;;;;;;;0.10;0.10;;;17.40;99.90;;;;;;4898259;29;20185;-85
2022/08/18 03:14:47;;;;;;;0.10;0.10;;;17.30;99.90;;;;;;4897014;29;20235;-85
2022/08/18 03:17:13;;;;;;;0.10;0.10;;;17.30;99.90;;;;;;4896748;29;20276;-86
2022/08/18 03:19:39;;;;;;;0.10;0.10;;;17.40;99.90;;;;;;4910888;29;20279;-85
2022/08/18 03:22:07;;;;;;;0.10;0.10;;;17.30;99.90;;;;;;4897051;29;20567;-86
2022/08/18 03:24:33;;;;;;;0.10;0.10;;;17.40;99.90;;;;;;4896255;29;20653;-85
2022/08/18 03:27:02;;;;;;;0.10;0.10;;;17.40;99.90;;;;;;4890410;29;20553;-85
2022/08/18 03:29:28;;;;;;;0.10;0.10;;;17.30;99.90;;;;;;4890910;29;20501;-86
2022/08/18 03:31:53;;;;;;;0.10;0.10;;;17.30;99.90;;;;;;4896306;29;20543;-86
2022/08/18 03:34:19;;;;;;;0.10;0.10;;;17.30;99.90;;;;;;4897914;29;20216;-85
2022/08/18 03:36:46;;;;;;;0.10;0.10;;;17.40;99.90;;;;;;4897141;29;20201;-86
2022/08/18 03:39:12;;;;;;;0.10;0.10;;;17.40;99.90;;;;;;4912248;29;20440;-86
2022/08/18 03:41:42;;;;;;;0.10;0.10;;;17.30;99.90;;;;;;4898771;29;20480;-86
2022/08/18 03:44:09;;;;;;;0.10;0.10;;;17.20;99.90;;;;;;4897335;29;20610;-86
2022/08/18 03:46:35;;;;;;;0.10;0.10;;;17.20;99.90;;;;;;4895327;29;20461;-86
2022/08/18 03:49:01;;;;;;;0.10;0.10;;;17.20;99.90;;;;;;4910463;29;20475;-85
2022/08/18 03:51:31;;;;;;;0.10;0.10;;;17.20;99.90;;;;;;4895016;29;20691;-86
2022/08/18 03:54:00;;;;;;;0.10;0.10;;;17.20;99.90;;;;;;4895921;29;20189;-86
2022/08/18 03:56:32;;;;;;;0.10;0.10;;;17.20;99.90;;;;;;4897475;29;20469;-86
2022/08/18 03:59:01;;;;;;;0.10;0.10;;;17.10;99.90;;;;;;4895440;29;20796;-86
2022/08/18 04:01:31;;;;;;;0.10;0.10;;;17.10;99.90;;;;;;4889661;29;20573;-86
2022/08/18 04:04:00;;;;;;;0.10;0.10;;;17.20;99.90;;;;;;4895470;29;20465;-86
2022/08/18 04:06:29;;;;;;;0.10;0.10;;;17.10;99.90;;;;;;4893134;29;20476;-85
2022/08/18 04:08:57;;;;;;;0.10;0.10;;;17.20;99.90;;;;;;4896258;29;20807;-86
2022/08/18 04:11:24;;;;;;;0.10;0.10;;;17.20;99.90;;;;;;4897160;29;20589;-86
2022/08/18 04:13:49;;;;;;;0.10;0.10;;;17.30;99.90;;;;;;4892004;29;20520;-86
2022/08/18 04:16:16;;;;;;;0.10;0.10;;;17.30;99.90;;;;;;4885416;29;20518;-86
2022/08/18 04:18:41;;;;;;;0.10;0.10;;;17.40;99.90;;;;;;4906462;29;20200;-86
2022/08/18 04:21:09;;;;;;;0.10;0.10;;;17.40;99.90;;;;;;4895988;29;20915;-86
2022/08/18 04:23:36;;;;;;;0.10;0.10;;;17.50;99.90;;;;;;4895901;29;20220;-87
2022/08/18 04:26:03;;;;;;;0.10;0.10;;;17.50;99.90;;;;;;4908502;29;20461;-85
2022/08/18 04:28:29;;;;;;;0.10;0.10;;;17.60;99.90;;;;;;4894081;29;20485;-86
2022/08/18 04:30:58;;;;;;;0.10;0.10;;;17.50;99.90;;;;;;4894981;29;20491;-87
2022/08/18 04:33:26;;;;;;;0.10;0.10;;;17.60;99.90;;;;;;4907438;29;20457;-87
2022/08/18 04:35:52;;;;;;;0.10;0.00;;;17.60;99.90;;;;;;4893027;29;21032;-86
2022/08/18 04:38:18;;;;;;;0.10;0.10;;;17.60;99.90;;;;;;4895152;29;20960;-86
2022/08/18 04:40:44;;;;;;;0.10;0.10;;;17.50;99.90;;;;;;4897127;29;20457;-87
2022/08/18 04:43:13;;;;;;;0.10;0.10;;;17.50;99.90;;;;;;4910654;29;20232;-85
2022/08/18 04:45:46;;;;;;;0.10;0.10;;;17.40;99.90;;;;;;4895325;29;20185;-87
2022/08/18 04:48:12;;;;;;;0.10;0.00;;;17.50;99.90;;;;;;4892542;29;20520;-86
2022/08/18 04:50:38;;;;;;;0.10;0.10;;;17.60;99.90;;;;;;4894019;29;20483;-85
2022/08/18 04:55:50;;;;;;;0.10;0.10;;;17.60;99.90;;;;;;4895661;29;21027;-86
2022/08/18 04:58:17;;;;;;;0.10;0.10;;;17.70;99.90;;;;;;4895480;29;20452;-86
2022/08/18 05:00:44;;;;;;;0.10;0.00;;;17.70;99.90;;;;;;4891163;29;21043;-87
2022/08/18 05:03:11;;;;;;;0.10;0.10;;;17.70;99.90;;;;;;4891214;29;20457;-86
2022/08/18 05:05:36;;;;;;;0.10;0.10;;;17.80;99.90;;;;;;4893708;29;20820;-86
2022/08/18 05:08:02;;;;;;;0.10;0.00;;;17.80;99.90;;;;;;4895461;29;20461;-85
2022/08/18 05:10:28;;;;;;;0.10;0.10;;;17.80;99.90;;;;;;4891929;29;20196;-85
2022/08/18 05:12:54;;;;;;;0.10;0.10;;;17.90;99.90;;;;;;4892976;29;20454;-85
2022/08/18 05:15:20;;;;;;;0.10;0.10;;;17.90;99.90;;;;;;4891200;29;20228;-86
2022/08/18 05:17:46;;;;;;;0.10;0.10;;;17.90;99.90;;;;;;4895550;29;20799;-86
2022/08/18 05:20:11;;;;;;;0.10;0.10;;;17.90;99.90;;;;;;4894499;29;20665;-86
2022/08/18 05:22:42;;;;;;;0.10;0.10;;;17.90;99.90;;;;;;4893108;29;20669;-86
2022/08/18 05:25:10;;;;;;;0.10;0.10;;;17.90;99.90;;;;;;4894667;29;20192;-86
2022/08/18 05:27:38;;;;;;;0.10;0.10;;;17.90;99.90;;;;;;4893610;29;20554;-84
2022/08/18 05:30:06;;;;;;;0.10;0.10;;;17.90;99.90;;;;;;4894084;29;20469;-84
2022/08/18 05:32:43;;;;;;;0.10;0.10;;;17.90;99.90;;;;;;4909653;29;20536;-85
2022/08/18 05:35:17;;;;;;;0.10;0.10;;;18.00;99.90;;;;;;4893621;29;20456;-84
2022/08/18 05:37:55;;;;;;;0.10;0.10;;;17.90;99.90;;;;;;4894617;29;20522;-85
2022/08/18 05:40:23;;;;;;;0.10;0.10;;;18.00;99.90;;;;;;4909069;29;20455;-86
2022/08/18 05:42:50;;;;;;;0.10;0.10;;;18.00;99.90;;;;;;4908848;29;20716;-86
2022/08/18 05:45:18;;;;;;;0.10;0.10;;;18.00;99.90;;;;;;4895046;29;20437;-85
2022/08/18 05:47:44;;;;;;;0.10;0.10;;;17.90;99.90;;;;;;4893032;29;20465;-85
2022/08/18 05:50:12;;;;;;;0.10;0.10;;;17.90;99.90;;;;;;4892219;29;20452;-85
2022/08/18 05:52:58;;;;;;;0.10;0.10;;;17.90;99.90;;;;;;4893836;29;20461;-85
2022/08/18 05:58:43;;;;;;;0.10;0.00;;;18.00;99.90;;;;;;4893674;29;20460;-85
2022/08/18 06:01:21;;;;;;;0.10;0.10;;;18.10;99.90;;;;;;4893778;29;20971;-85
2022/08/18 06:03:58;;;;;;;0.10;0.10;;;18.20;99.90;;;;;;4895290;29;20439;-85
2022/08/18 06:06:29;;;;;;;0.10;0.10;;;18.30;99.90;;;;;;4895142;29;20444;-85
2022/08/18 06:09:02;;;;;;;0.10;0.10;;;18.40;99.90;;;;;;4894425;29;20449;-85
2022/08/18 06:11:28;;;;;;;0.10;0.10;;;18.50;99.90;;;;;;4895040;29;20453;-87
2022/08/18 06:13:53;;;;;;;0.10;0.00;;;18.50;99.90;;;;;;4888160;29;20541;-87
2022/08/18 06:16:41;;;;;;;0.10;0.10;;;18.50;99.90;;;;;;4892117;29;20661;-87
2022/08/18 06:19:34;;;;;;;0.10;0.00;;;18.60;99.90;;;;;;4889093;29;20192;-87
2022/08/18 06:22:00;;;;;;;0.10;0.10;;;18.60;99.90;;;;;;4894288;29;21016;-88
2022/08/18 06:24:40;;;;;;;0.10;0.10;;;18.70;99.90;;;;;;4891446;29;20468;-88
2022/08/18 06:27:13;;;;;;;0.10;0.10;;;18.70;99.90;;;;;;4895084;29;20195;-87
2022/08/18 06:29:57;;;;;;;0.10;0.10;;;18.80;99.90;;;;;;4890088;29;20453;-88
2022/08/18 06:33:04;;;;;;;0.10;0.10;;;18.90;99.90;;;;;;4896715;29;20474;-87
2022/08/18 06:35:33;;;;;;;0.10;0.00;;;19.10;99.90;;;;;;4888217;29;20429;-86
2022/08/18 06:41:44;;;;;;;0.10;0.00;;;19.30;99.90;;;;;;4897327;29;20505;-86
2022/08/18 06:44:24;;;;;;;0.10;0.10;;;19.40;99.90;;;;;;4835285;29;20460;-85
2022/08/18 06:47:03;;;;;;;0.10;0.10;;;19.40;99.90;;;;;;4837619;29;20941;-85
2022/08/18 06:49:35;;;;;;;0.10;0.10;;;19.40;99.90;;;;;;4878467;29;20453;-86
2022/08/18 06:52:18;;;;;;;0.10;0.00;;;19.40;99.90;;;;;;4892858;29;20492;-87
2022/08/18 06:54:44;;;;;;;0.10;0.00;;;19.50;99.90;;;;;;4912167;29;20455;-87
2022/08/18 06:57:23;;;;;;;0.10;0.10;;;19.60;99.90;;;;;;4897196;29;20434;-86
2022/08/18 07:00:27;;;;;;;0.10;0.10;;;19.50;99.90;;;;;;4897057;29;20766;-86
2022/08/18 07:02:56;;;;;;;0.10;0.00;;;19.60;99.90;;;;;;4889675;29;20487;-85
2022/08/18 07:05:30;;;;;;;0.10;0.00;;;19.70;99.90;;;;;;4907341;29;20536;-85
2022/08/18 07:08:13;;;;;;;0.10;0.00;;;19.80;99.90;;;;;;4888485;29;20458;-86
2022/08/18 07:10:43;;;;;;;0.10;0.00;;;19.90;99.90;;;;;;4895549;29;20531;-85
2022/08/18 07:13:25;;;;;;;0.10;0.00;;;19.70;99.90;;;;;;4896684;29;20444;-85
2022/08/18 07:15:53;;;;;;;0.10;0.00;;;19.90;99.90;;;;;;4909837;29;20456;-86
2022/08/18 07:18:25;;;;;;;0.10;0.00;;;20.20;99.90;;;;;;4893977;29;20483;-85
2022/08/18 07:20:58;;;;;;;0.10;0.00;;;20.30;99.90;;;;;;4895342;29;20451;-85
2022/08/18 07:23:39;;;;;;;0.10;0.10;;;20.40;99.90;;;;;;4892450;29;20487;-86
2022/08/18 07:26:17;;;;;;;0.10;0.00;;;20.40;99.90;;;;;;4891889;29;20440;-87
2022/08/18 07:28:49;;;;;;;0.10;0.00;;;20.60;99.90;;;;;;4889776;29;20449;-85
2022/08/18 07:31:26;;;;;;;0.10;0.00;;;20.60;99.90;;;;;;4892051;29;21064;-85
2022/08/18 07:33:57;;;;;;;0.07;0.00;;;20.90;99.90;;;;;;4892212;29;20491;-86
2022/08/18 07:36:28;;;;;;;0.10;0.00;;;21.20;99.90;;;;;;4893184;29;20444;-86
2022/08/18 07:39:00;;;;;;;0.10;0.00;;;21.40;99.90;;;;;;4895564;29;20449;-88
2022/08/18 07:41:46;;;;;;;0.10;0.00;;;21.50;99.90;;;;;;4890278;29;20556;-87
2022/08/18 07:44:36;;;;;;;0.10;0.00;;;21.30;99.90;;;;;;4891199;29;20449;-86
2022/08/18 07:47:07;;;;;;;0.10;0.00;;;21.40;99.90;;;;;;4893667;29;20440;-85
2022/08/18 07:49:35;;;;;;;0.10;0.00;;;21.60;99.90;;;;;;4892640;29;20514;-84
2022/08/18 07:52:18;;;;;;;0.10;0.00;;;21.80;99.90;;;;;;4894710;29;20441;-84
2022/08/18 07:55:00;;;;;;;0.10;0.00;;;22.00;99.90;;;;;;4891946;29;20508;-84
2022/08/18 07:57:54;;;;;;;0.10;0.00;;;22.10;99.90;;;;;;4893776;29;20500;-85
2022/08/18 08:00:33;;;;;;;0.10;0.00;;;22.10;99.90;;;;;;4897565;29;20497;-85
2022/08/18 08:03:45;;;;;;;0.10;0.00;;;22.10;99.90;;;;;;4895500;29;21233;-85
2022/08/18 08:06:28;;;;;;;0.10;0.10;;;22.40;99.90;;;;;;4842198;29;20439;-84
2022/08/18 08:09:21;;;;;;;0.10;0.00;;;22.60;99.90;;;;;;4892450;29;21016;-85
2022/08/18 08:11:56;;;;;;;0.10;0.00;;;22.60;99.90;;;;;;4892500;29;20828;-84
2022/08/18 08:14:41;;;;;;;0.00;0.00;;;22.60;99.90;;;;;;4897096;29;20544;-84
2022/08/18 08:17:23;;;;;;;0.10;0.00;;;22.80;99.90;;;;;;4911581;29;20522;-84
2022/08/18 08:19:57;;;;;;;0.10;0.00;;;23.10;99.90;;;;;;4897063;29;20428;-85
2022/08/18 08:22:29;;;;;;;0.10;0.00;;;23.10;99.90;;;;;;4893846;29;20870;-84
2022/08/18 08:25:19;;;;;;;0.10;0.00;;;23.10;99.90;;;;;;4895138;29;20452;-84
2022/08/18 08:28:24;;;;;;;0.10;0.00;;;23.40;99.90;;;;;;4891841;29;20453;-85
2022/08/18 08:31:17;;;;;;;0.10;0.00;;;23.40;99.90;;;;;;4896138;29;20456;-84
2022/08/18 08:33:57;;;;;;;0.10;0.00;;;23.40;99.90;;;;;;4896089;29;20468;-85
2022/08/18 08:36:29;;;;;;;0.10;0.00;;;23.60;99.90;;;;;;4895351;29;20839;-84
2022/08/18 08:39:00;;;;;;;0.10;0.00;;;23.80;99.90;;;;;;4895294;29;20826;-83
2022/08/18 08:41:44;;;;;;;0.10;0.00;;;24.00;99.90;;;;;;4895698;29;20484;-84
2022/08/18 08:44:31;;;;;;;0.10;0.00;;;24.20;99.90;;;;;;4895801;29;20433;-85
2022/08/18 08:47:25;;;;;;;0.10;0.00;;;24.30;99.90;;;;;;4896633;29;21308;-85
2022/08/18 08:50:00;;;;;;;0.10;0.00;;;24.60;99.90;;;;;;4889142;29;20461;-84
2022/08/18 08:52:49;;;;;;;0.10;0.00;;;24.70;99.90;;;;;;4887940;29;20493;-84
2022/08/18 08:55:24;;;;;;;0.10;0.00;;;24.70;99.90;;;;;;4888648;29;20459;-85
2022/08/18 08:58:08;;;;;;;0.07;0.00;;;24.50;99.90;;;;;;4894401;29;20448;-84
2022/08/18 09:00:35;;;;;;;0.00;0.00;;;24.40;99.90;;;;;;4892878;29;20485;-84
2022/08/18 09:03:32;;;;;;;0.10;0.10;;;24.30;99.90;;;;;;4895928;29;20572;-84
2022/08/18 09:06:38;;;;;;;0.10;0.00;;;24.10;99.90;;;;;;4893516;29;20444;-84
2022/08/18 09:09:43;;;;;;;0.07;0.00;;;24.40;99.90;;;;;;4875944;29;20448;-83
2022/08/18 09:12:35;;;;;;;0.10;0.00;;;24.80;99.90;;;;;;4892248;29;20488;-83
2022/08/18 09:15:30;;;;;;;0.10;0.00;;;24.90;99.90;;;;;;4894309;29;20493;-83
2022/08/18 09:18:23;;;;;;;0.10;0.00;;;24.70;99.90;;;;;;4892889;29;20562;-83
2022/08/18 09:21:17;;;;;;;0.10;0.00;;;25.30;99.90;;;;;;4889057;29;20460;-83
2022/08/18 09:23:47;;;;;;;0.10;0.00;;;25.80;99.90;;;;;;4890918;29;20453;-83
2022/08/18 09:26:31;;;;;;;0.10;0.00;;;25.70;99.90;;;;;;4890286;29;20465;-80
2022/08/18 09:29:09;;;;;;;0.10;0.00;;;25.80;99.90;;;;;;4885133;29;20476;-80
2022/08/18 09:31:35;;;;;;;0.00;0.00;;;26.10;99.90;;;;;;4891116;29;20529;-80
2022/08/18 09:34:15;;;;;;;0.10;0.00;;;26.00;99.90;;;;;;4894038;29;20461;-80
2022/08/18 09:36:50;;;;;;;0.10;0.00;;;26.00;99.90;;;;;;4891914;29;20453;-81
2022/08/18 09:42:15;;;;;;;0.00;0.00;;;25.00;99.90;;;;;;4876865;29;20508;-81
2022/08/18 09:44:47;;;;;;;0.10;0.00;;;24.60;99.90;;;;;;4894200;29;20433;-83
2022/08/18 09:47:24;;;;;;;0.10;0.00;;;24.60;99.90;;;;;;4890873;29;20528;-82
2022/08/18 09:49:54;;;;;;;0.10;0.00;;;24.70;99.90;;;;;;4891124;29;20437;-82
2022/08/18 09:52:20;;;;;;;0.10;0.00;;;24.50;99.90;;;;;;4891425;29;20460;-83
2022/08/18 09:55:00;;;;;;;0.10;0.00;;;24.70;99.90;;;;;;4891190;29;20843;-83
2022/08/18 09:57:34;;;;;;;0.10;0.00;;;25.60;99.90;;;;;;4886628;29;20192;-82
2022/08/18 10:00:03;;;;;;;0.10;0.00;;;25.60;99.90;;;;;;4887684;29;21040;-83
2022/08/18 10:02:29;;;;;;;0.10;0.00;;;25.30;99.90;;;;;;4892852;29;20533;-83
2022/08/18 10:05:16;;;;;;;0.10;0.00;;;25.50;99.90;;;;;;4892245;29;21003;-83
2022/08/18 10:07:54;;;;;;;0.10;0.00;;;25.20;99.90;;;;;;4890950;29;20683;-82
2022/08/18 10:10:48;;;;;;;0.10;0.00;;;24.80;99.90;;;;;;4889769;29;20535;-82
2022/08/18 10:13:25;;;;;;;0.10;0.00;;;25.00;99.90;;;;;;4888049;29;21024;-84
2022/08/18 10:16:13;;;;;;;0.10;0.00;;;24.60;99.90;;;;;;4888718;29;21012;-82
2022/08/18 10:19:12;;;;;;;0.10;0.00;;;24.60;99.90;;;;;;4891378;29;20544;-82
2022/08/18 10:21:57;;;;;;;0.10;0.00;;;24.70;99.90;;;;;;4889440;29;20493;-83
2022/08/18 10:24:31;;;;;;;0.10;0.00;;;25.50;99.90;;;;;;4890744;29;20798;-82
2022/08/18 10:26:58;;;;;;;0.10;0.00;;;26.50;99.90;;;;;;4902393;29;20455;-82
2022/08/18 10:29:27;;;;;;;0.10;0.00;;;26.30;99.90;;;;;;4889778;29;20441;-83
2022/08/18 10:31:55;;;;;;;0.10;0.00;;;27.20;99.90;;;;;;4891963;29;20442;-80
2022/08/18 10:34:43;;;;;;;0.10;0.00;;;27.60;99.90;;;;;;4887919;29;20832;-80
2022/08/18 10:37:17;;;;;;;0.10;0.00;;;27.60;99.90;;;;;;4879648;29;21159;-81
2022/08/18 10:39:52;;;;;;;0.10;0.00;;;27.30;99.90;;;;;;4886567;29;21168;-80
2022/08/18 10:42:40;;;;;;;0.07;0.00;;;26.20;99.90;;;;;;4886751;29;20501;-80
2022/08/18 10:45:23;;;;;;;0.10;0.00;;;26.00;99.90;;;;;;4903604;29;20480;-78
2022/08/18 10:48:08;;;;;;;0.10;0.00;;;25.60;99.90;;;;;;4890099;29;20445;-78
2022/08/18 10:50:43;;;;;;;0.10;0.00;;;25.40;99.90;;;;;;4889991;29;20472;-80
2022/08/18 10:53:30;;;;;;;0.00;0.00;;;25.60;99.90;;;;;;4884301;29;20468;-79
2022/08/18 10:56:18;;;;;;;0.00;0.00;;;25.50;99.90;;;;;;4899261;29;20551;-79
2022/08/18 10:58:59;;;;;;;0.10;0.00;;;25.20;99.90;;;;;;4885432;29;20507;-79
2022/08/18 11:01:41;;;;;;;0.10;0.00;;;25.20;99.90;;;;;;4887111;29;20610;-79
2022/08/18 11:04:07;;;;;;;0.00;0.00;;;25.00;99.90;;;;;;4884982;29;20958;-79
2022/08/18 11:06:40;;;;;;;0.10;0.00;;;25.20;99.90;;;;;;4901116;29;20454;-79
2022/08/18 11:09:06;;;;;;;0.10;0.00;;;25.30;99.90;;;;;;4889342;29;20276;-79
2022/08/18 11:11:40;;;;;;;0.10;0.10;;;25.30;99.90;;;;;;4896620;29;20449;-79
2022/08/18 11:14:44;;;;;;;0.10;0.00;;;25.10;99.90;;;;;;4877137;29;20478;-79
2022/08/18 11:17:40;;;;;;;0.10;0.00;;;25.70;99.90;;;;;;4890857;29;20448;-79
2022/08/18 11:20:08;;;;;;;0.10;0.00;;;26.10;99.90;;;;;;4886445;29;20462;-78
2022/08/18 11:22:35;;;;;;;0.10;0.00;;;26.60;99.90;;;;;;4891139;29;20559;-80
2022/08/18 11:25:03;;;;;;;0.00;0.00;;;27.60;99.90;;;;;;4893620;29;20493;-79
2022/08/18 11:27:34;;;;;;;0.00;0.00;;;28.20;99.90;;;;;;4894845;29;20476;-79
2022/08/18 11:30:03;;;;;;;0.00;0.00;;;28.20;99.90;;;;;;4892058;29;20460;-80
2022/08/18 11:32:38;;;;;;;0.00;0.00;;;28.80;99.90;;;;;;4908835;29;20532;-79
2022/08/18 11:35:10;;;;;;;0.00;0.00;;;29.20;99.90;;;;;;4888695;29;20575;-80
2022/08/18 11:37:44;;;;;;;0.00;0.00;;;29.30;99.90;;;;;;4890842;29;20457;-80
2022/08/18 11:40:19;;;;;;;0.00;0.00;;;30.10;99.90;;;;;;4892811;29;20441;-78
2022/08/18 11:42:57;;;;;;;0.00;0.00;;;29.50;99.90;;;;;;4892399;29;20859;-79
2022/08/18 11:45:25;;;;;;;0.00;0.00;;;29.40;99.90;;;;;;4907863;29;20461;-79
2022/08/18 11:48:12;;;;;;;0.00;0.00;;;29.90;99.90;;;;;;4893394;29;20453;-80
2022/08/18 11:50:58;;;;;;;0.00;0.00;;;29.60;99.90;;;;;;4893562;29;20508;-79
2022/08/18 11:53:50;;;;;;;0.00;0.00;;;30.40;99.90;;;;;;4885312;29;20441;-79
2022/08/18 11:56:19;;;;;;;0.00;0.00;;;31.60;99.90;;;;;;4890186;29;20983;-77
2022/08/18 11:58:55;;;;;;;0.00;0.00;;;31.00;99.90;;;;;;4892836;29;20457;-77
2022/08/18 12:01:30;;;;;;;0.00;0.00;;;30.20;99.90;;;;;;4891134;29;20885;-79
2022/08/18 12:04:08;;;;;;;0.00;0.00;;;29.40;99.90;;;;;;4892561;29;21055;-80
2022/08/18 12:06:35;;;;;;;0.00;0.00;;;28.80;99.90;;;;;;4892812;29;20453;-78
2022/08/18 12:09:26;;;;;;;0.00;0.00;;;28.50;99.90;;;;;;4893764;29;20500;-78
2022/08/18 12:11:55;;;;;;;0.00;0.00;;;29.50;99.90;;;;;;4878995;29;20453;-79
2022/08/18 12:14:24;;;;;;;0.00;0.00;;;30.50;99.90;;;;;;4892030;29;20516;-78
2022/08/18 12:16:50;;;;;;;0.00;0.00;;;30.60;99.90;;;;;;4892184;29;20814;-79
2022/08/18 12:19:16;;;;;;;0.00;0.00;;;30.70;99.90;;;;;;4895436;29;21194;-78
2022/08/18 12:21:52;;;;;;;0.00;0.00;;;31.00;99.90;;;;;;4894325;29;20572;-78
2022/08/18 12:24:30;;;;;;;0.00;0.00;;;30.90;99.90;;;;;;4893031;29;20911;-78
2022/08/18 12:26:57;;;;;;;0.00;0.00;;;30.20;99.90;;;;;;4894435;29;20485;-78
2022/08/18 12:29:23;;;;;;;0.00;0.00;;;29.40;99.90;;;;;;4891477;29;20468;-78
2022/08/18 12:31:52;;;;;;;0.00;0.00;;;28.70;99.90;;;;;;4892835;29;20468;-79
2022/08/18 12:34:22;;;;;;;0.00;0.00;;;27.90;99.90;;;;;;4894262;29;20938;-79
2022/08/18 12:36:50;;;;;;;0.00;0.00;;;27.70;99.90;;;;;;4894605;29;20457;-78
2022/08/18 12:39:15;;;;;;;0.00;0.00;;;27.30;99.90;;;;;;4896026;29;20764;-78
2022/08/18 12:41:41;;;;;;;0.00;0.00;;;27.60;99.90;;;;;;4895613;29;20491;-78
2022/08/18 12:44:06;;;;;;;0.00;0.00;;;27.90;99.90;;;;;;4894291;29;20219;-78
2022/08/18 12:46:32;;;;;;;0.00;0.00;;;29.10;99.90;;;;;;4891384;29;20285;-78
2022/08/18 12:48:57;;;;;;;0.00;0.00;;;29.40;99.90;;;;;;4909011;29;20260;-78
2022/08/18 12:51:23;;;;;;;0.00;0.00;;;29.20;99.90;;;;;;4895804;29;20189;-78
2022/08/18 12:53:48;;;;;;;0.00;0.00;;;29.20;99.90;;;;;;4896497;29;20222;-78
2022/08/18 12:56:28;;;;;;;0.00;0.00;;;29.40;99.90;;;;;;4896469;29;20520;-78
2022/08/18 12:58:55;;;;;;;0.00;0.00;;;29.60;99.90;;;;;;4895814;29;20359;-78
2022/08/18 13:01:20;;;;;;;0.00;0.00;;;29.30;99.90;;;;;;4893329;29;20536;-78
2022/08/18 13:03:47;;;;;;;0.00;0.00;;;28.70;99.90;;;;;;4893863;29;20769;-78
2022/08/18 13:06:13;;;;;;;0.00;0.00;;;28.90;99.90;;;;;;4894519;29;20189;-78
2022/08/18 13:08:39;;;;;;;0.00;0.00;;;29.40;99.90;;;;;;4895343;29;20492;-78
2022/08/18 13:11:09;;;;;;;0.00;0.00;;;29.30;99.90;;;;;;4896315;29;20461;-78
2022/08/18 13:13:37;;;;;;;0.00;0.00;;;29.40;99.90;;;;;;4893163;29;20552;-77
2022/08/18 13:16:05;;;;;;;0.00;0.00;;;29.60;99.90;;;;;;4894358;29;20534;-78
2022/08/18 13:18:30;;;;;;;0.00;0.00;;;29.60;99.90;;;;;;4891163;29;20457;-78
2022/08/18 13:20:59;;;;;;;0.00;0.00;;;30.10;99.90;;;;;;4887008;29;21006;-79
2022/08/18 13:23:26;;;;;;;0.00;0.00;;;30.30;99.90;;;;;;4891512;29;20201;-78
2022/08/18 13:25:52;;;;;;;0.00;0.00;;;30.50;99.90;;;;;;4890265;29;20938;-79
2022/08/18 13:28:17;;;;;;;0.00;0.00;;;30.60;99.90;;;;;;4890830;29;20462;-77
2022/08/18 13:30:44;;;;;;;0.00;0.00;;;30.40;99.90;;;;;;4891708;29;20493;-78
2022/08/18 13:33:10;;;;;;;0.00;0.00;;;30.60;99.90;;;;;;4891740;29;20275;-78
2022/08/18 13:35:35;;;;;;;0.00;0.00;;;30.40;99.90;;;;;;4892442;29;20544;-77